Terminal Aerodrome Forecast
Issued by NWS St Louis, MO

Home | Current Version | Previous Version | Graphics & Text | Print | Product List | Glossary On
Versions: 1 2 3 4 5 6 7 8 9 10 11 12 13 14 15 16 17 18 19 20 21 22 23 24 25 26 27 28
899
FTUS43 KLSX 170520
TAFSTL
TAF
KSTL 170520Z 1706/1812 17007KT P6SM SCT120 BKN250
     FM171500 24006KT P6SM SCT035 BKN120
     FM171800 30006KT P6SM VCSH BKN040
     FM180000 VRB04KT P6SM SCT050 BKN120=

USA.gov is the U.S. government's official web portal to all federal, state and local government web resources and services.